Sultan Atasoy — TCYG9 — position and weather

sailwx.info

Track history (hours):
 
Tides and Currents Weather Stations Pressure Air Temp Water Temp Dewpoint Dewpoint Depression Visibility Wind Speed Wind Dir Waves Ship Positions

Sultan Atasoy

Last reported at 2016-Jun-27 09:10 UTC. Time now 2016-Jun-29 16:31 UTC.
Position N 40°00' E 026°10'.

Length 109 m; draft 7.2 m.

Type: Ship. MMSI: 271040963.

Date/timePositionNaut miles runAvg speedWind from/ knotsBaromVisibWave heightAir tempDewpointWater temp
2016-Jun-27 09:10N 40°00' E 026°10'  
2016-Jun-25 04:16N 36°09' E 034°00'4211.2
2016-Jun-25 00:32N 36°21' E 034°50'1010.7
2016-Jun-24 23:33N 36°23' E 035°03'1110.7
2016-Jun-24 22:33N 36°26' E 035°15'1010.5
2016-Jun-24 21:33N 36°29' E 035°28'1010.1
2016-Jun-24 20:33N 36°34' E 035°39'10 9.9
2016-Jun-24 19:33N 36°40' E 035°49'  
2016-Jun-22 00:19N 36°20' E 035°41'1011.3
2016-Jun-21 23:28N 36°11' E 035°38'1011.1
2016-Jun-21 22:33N 36°02' E 035°34'1110.9
2016-Jun-21 21:33N 35°51' E 035°30'1611.0
2016-Jun-21 20:05N 35°35' E 035°26'611.3
2016-Jun-21 19:33N 35°29' E 035°25'1111.2
2016-Jun-21 18:33N 35°18' E 035°22'1111.3
2016-Jun-21 17:33N 35°07' E 035°19'1111.3
2016-Jun-21 16:33N 34°56' E 035°15'1111.1
2016-Jun-21 15:33N 34°46' E 035°12'1111.0
2016-Jun-21 14:33N 34°35' E 035°08'1110.8
2016-Jun-21 13:33N 34°25' E 035°04'1110.6
2016-Jun-21 12:33N 34°15' E 034°60'1110.6
2016-Jun-21 11:33N 34°05' E 034°56'1110.9
2016-Jun-21 10:33N 33°54' E 034°53'1111.2
2016-Jun-21 09:33N 33°43' E 034°49'1111.3
2016-Jun-21 08:33N 33°33' E 034°45'1111.4
2016-Jun-21 07:33N 33°22' E 034°40'17 8.6
2016-Jun-21 05:33N 33°05' E 034°44'9 9.2
2016-Jun-21 04:33N 32°56' E 034°46'1110.8
2016-Jun-21 03:33N 32°53' E 034°58'5 4.9
2016-Jun-21 02:32N 32°49' E 035°02'0 0.0
2016-Jun-21 01:32N 32°49' E 035°02'0 0.0
2016-Jun-21 00:32N 32°49' E 035°02'0 0.0
2016-Jun-20 23:32N 32°49' E 035°02'0 0.0
2016-Jun-20 22:32N 32°49' E 035°02'0 0.0
2016-Jun-20 21:32N 32°49' E 035°02'0 0.0
2016-Jun-20 20:32N 32°49' E 035°02'0 0.0
2016-Jun-20 19:32N 32°49' E 035°02'0 0.0
2016-Jun-20 18:32N 32°49' E 035°02'0 0.0
2016-Jun-20 17:32N 32°49' E 035°02'0 0.0
2016-Jun-20 16:32N 32°49' E 035°02'0 0.0
2016-Jun-20 14:32N 32°49' E 035°02'0 0.0
2016-Jun-20 13:32N 32°49' E 035°02'0 0.0
2016-Jun-20 12:32N 32°49' E 035°02'0 0.0
2016-Jun-20 11:32N 32°49' E 035°02'0 0.0
2016-Jun-20 10:32N 32°49' E 035°02'0 0.0
2016-Jun-20 09:32N 32°49' E 035°02'0 0.0
2016-Jun-20 08:32N 32°49' E 035°02'0 0.0
2016-Jun-20 07:32N 32°49' E 035°02'0 0.0
2016-Jun-20 06:32N 32°49' E 035°02'0 0.0
2016-Jun-20 05:32N 32°49' E 035°02'0 0.0
2016-Jun-20 04:32N 32°49' E 035°02'0 0.0
2016-Jun-20 03:32N 32°49' E 035°02'0 0.0
2016-Jun-20 02:32N 32°49' E 035°02'0 0.0
2016-Jun-20 01:32N 32°49' E 035°02'0 0.0
2016-Jun-20 00:32N 32°49' E 035°02'0 0.0
2016-Jun-19 23:32N 32°49' E 035°02'0 0.0
2016-Jun-19 22:32N 32°49' E 035°02'0 0.0
2016-Jun-19 21:32N 32°49' E 035°02'0 0.0
2016-Jun-19 20:32N 32°49' E 035°02'0 0.0
2016-Jun-19 19:32N 32°49' E 035°02'0 0.0
2016-Jun-19 18:32N 32°49' E 035°02'0 0.0
2016-Jun-19 17:32N 32°49' E 035°02'0 0.0
2016-Jun-19 16:32N 32°49' E 035°02'0 0.0
2016-Jun-19 15:32N 32°49' E 035°02'0 0.0
2016-Jun-19 14:32N 32°49' E 035°02'0 0.0
2016-Jun-19 13:32N 32°49' E 035°02'0 0.0
2016-Jun-19 12:32N 32°49' E 035°02'0 0.0
2016-Jun-19 11:32N 32°49' E 035°02'0 0.0
2016-Jun-19 10:31N 32°49' E 035°02'0 0.0
2016-Jun-19 09:31N 32°49' E 035°02'0 0.0
2016-Jun-19 08:28N 32°49' E 035°02'0 0.0
2016-Jun-19 07:31N 32°49' E 035°02'0 0.0
2016-Jun-19 06:31N 32°49' E 035°02'0 0.0
2016-Jun-19 05:31N 32°49' E 035°02'0 0.0
2016-Jun-19 04:31N 32°49' E 035°02'0 0.0
2016-Jun-19 03:31N 32°49' E 035°02'0 0.0
2016-Jun-19 02:28N 32°49' E 035°02'0 0.1
2016-Jun-19 01:34N 32°49' E 035°02'5 4.4
2016-Jun-19 00:31N 32°53' E 034°59'0 0.0
2016-Jun-18 23:31N 32°53' E 034°59'0 0.0
2016-Jun-18 22:31N 32°53' E 034°59'0 0.0
2016-Jun-18 21:31N 32°53' E 034°59'0 0.0
2016-Jun-18 20:31N 32°53' E 034°59'0 0.0
2016-Jun-18 19:31N 32°53' E 034°59'0 0.0
2016-Jun-18 18:31N 32°53' E 034°59'0 0.0
2016-Jun-18 17:31N 32°53' E 034°59'0 0.0
2016-Jun-18 16:31N 32°53' E 034°59'0 0.0
2016-Jun-18 15:31N 32°53' E 034°59'0 0.0
2016-Jun-18 14:31N 32°53' E 034°59'0 0.0
2016-Jun-18 13:31N 32°53' E 034°59'0 0.0
2016-Jun-18 12:31N 32°53' E 034°59'0 0.0
2016-Jun-18 11:28N 32°53' E 034°59'0 0.0
2016-Jun-18 10:31N 32°53' E 034°59'0 0.0
2016-Jun-18 09:31N 32°53' E 034°59'0 0.0
2016-Jun-18 08:31N 32°53' E 034°59'0 0.0
2016-Jun-18 07:31N 32°53' E 034°59'0 0.0
2016-Jun-18 06:33N 32°53' E 034°59'0 0.0
2016-Jun-18 05:33N 32°53' E 034°59'0 0.0
2016-Jun-18 04:27N 32°53' E 034°59'0 0.0
2016-Jun-18 03:33N 32°53' E 034°59'0 0.0
2016-Jun-18 02:33N 32°53' E 034°59'0 0.0
2016-Jun-18 01:33N 32°53' E 034°59'0 0.0
2016-Jun-18 00:33N 32°53' E 034°59'0 0.0
2016-Jun-17 23:33N 32°53' E 034°59'0 0.0
2016-Jun-17 22:33N 32°53' E 034°59'0 0.0
2016-Jun-17 21:33N 32°53' E 034°59'0 0.0
2016-Jun-17 20:33N 32°53' E 034°59'0 0.0
2016-Jun-17 19:33N 32°53' E 034°59'0 0.0
2016-Jun-17 18:33N 32°53' E 034°59'0 0.0
2016-Jun-17 17:33N 32°53' E 034°59'0 0.0
2016-Jun-17 16:33N 32°53' E 034°59'0 0.0
2016-Jun-17 15:33N 32°53' E 034°59'0 0.0
2016-Jun-17 14:33N 32°53' E 034°59'0 0.0
2016-Jun-17 13:33N 32°53' E 034°59'0 0.0
2016-Jun-17 12:33N 32°53' E 034°59'0 0.0
2016-Jun-17 11:33N 32°53' E 034°59'0 0.0
2016-Jun-17 10:33N 32°53' E 034°59'0 0.0
2016-Jun-17 09:33N 32°53' E 034°59'  
Track history (hours):
 
Tides and Currents Weather Stations Pressure Air Temp Water Temp Dewpoint Dewpoint Depression Visibility Wind Speed Wind Dir Waves Ship Positions

Sultan Atasoy

Last reported at 2016-Jun-27 09:10 UTC. Time now 2016-Jun-29 16:31 UTC.
Position N 40°00' E 026°10'.

Length 109 m; draft 7.2 m.

Type: Ship. MMSI: 271040963.

Date/timePositionNaut miles runAvg speedWind from/ knotsBaromVisibWave heightAir tempDewpointWater temp
2016-Jun-27 09:10N 40°00' E 026°10'  
2016-Jun-25 04:16N 36°09' E 034°00'4211.2
2016-Jun-25 00:32N 36°21' E 034°50'1010.7
2016-Jun-24 23:33N 36°23' E 035°03'1110.7
2016-Jun-24 22:33N 36°26' E 035°15'1010.5
2016-Jun-24 21:33N 36°29' E 035°28'1010.1
2016-Jun-24 20:33N 36°34' E 035°39'10 9.9
2016-Jun-24 19:33N 36°40' E 035°49'  
2016-Jun-22 00:19N 36°20' E 035°41'1011.3
2016-Jun-21 23:28N 36°11' E 035°38'1011.1
2016-Jun-21 22:33N 36°02' E 035°34'1110.9
2016-Jun-21 21:33N 35°51' E 035°30'1611.0
2016-Jun-21 20:05N 35°35' E 035°26'611.3
2016-Jun-21 19:33N 35°29' E 035°25'1111.2
2016-Jun-21 18:33N 35°18' E 035°22'1111.3
2016-Jun-21 17:33N 35°07' E 035°19'1111.3
2016-Jun-21 16:33N 34°56' E 035°15'1111.1
2016-Jun-21 15:33N 34°46' E 035°12'1111.0
2016-Jun-21 14:33N 34°35' E 035°08'1110.8
2016-Jun-21 13:33N 34°25' E 035°04'1110.6
2016-Jun-21 12:33N 34°15' E 034°60'1110.6
2016-Jun-21 11:33N 34°05' E 034°56'1110.9
2016-Jun-21 10:33N 33°54' E 034°53'1111.2
2016-Jun-21 09:33N 33°43' E 034°49'1111.3
2016-Jun-21 08:33N 33°33' E 034°45'1111.4
2016-Jun-21 07:33N 33°22' E 034°40'17 8.6
2016-Jun-21 05:33N 33°05' E 034°44'9 9.2
2016-Jun-21 04:33N 32°56' E 034°46'1110.8
2016-Jun-21 03:33N 32°53' E 034°58'5 4.9
2016-Jun-21 02:32N 32°49' E 035°02'0 0.0
2016-Jun-21 01:32N 32°49' E 035°02'0 0.0
2016-Jun-21 00:32N 32°49' E 035°02'0 0.0
2016-Jun-20 23:32N 32°49' E 035°02'0 0.0
2016-Jun-20 22:32N 32°49' E 035°02'0 0.0
2016-Jun-20 21:32N 32°49' E 035°02'0 0.0
2016-Jun-20 20:32N 32°49' E 035°02'0 0.0
2016-Jun-20 19:32N 32°49' E 035°02'0 0.0
2016-Jun-20 18:32N 32°49' E 035°02'0 0.0
2016-Jun-20 17:32N 32°49' E 035°02'0 0.0
2016-Jun-20 16:32N 32°49' E 035°02'0 0.0
2016-Jun-20 14:32N 32°49' E 035°02'0 0.0
2016-Jun-20 13:32N 32°49' E 035°02'0 0.0
2016-Jun-20 12:32N 32°49' E 035°02'0 0.0
2016-Jun-20 11:32N 32°49' E 035°02'0 0.0
2016-Jun-20 10:32N 32°49' E 035°02'0 0.0
2016-Jun-20 09:32N 32°49' E 035°02'0 0.0
2016-Jun-20 08:32N 32°49' E 035°02'0 0.0
2016-Jun-20 07:32N 32°49' E 035°02'0 0.0
2016-Jun-20 06:32N 32°49' E 035°02'0 0.0
2016-Jun-20 05:32N 32°49' E 035°02'0 0.0
2016-Jun-20 04:32N 32°49' E 035°02'0 0.0
2016-Jun-20 03:32N 32°49' E 035°02'0 0.0
2016-Jun-20 02:32N 32°49' E 035°02'0 0.0
2016-Jun-20 01:32N 32°49' E 035°02'0 0.0
2016-Jun-20 00:32N 32°49' E 035°02'0 0.0
2016-Jun-19 23:32N 32°49' E 035°02'0 0.0
2016-Jun-19 22:32N 32°49' E 035°02'0 0.0
2016-Jun-19 21:32N 32°49' E 035°02'0 0.0
2016-Jun-19 20:32N 32°49' E 035°02'0 0.0
2016-Jun-19 19:32N 32°49' E 035°02'0 0.0
2016-Jun-19 18:32N 32°49' E 035°02'0 0.0
2016-Jun-19 17:32N 32°49' E 035°02'0 0.0
2016-Jun-19 16:32N 32°49' E 035°02'0 0.0
2016-Jun-19 15:32N 32°49' E 035°02'0 0.0
2016-Jun-19 14:32N 32°49' E 035°02'0 0.0
2016-Jun-19 13:32N 32°49' E 035°02'0 0.0
2016-Jun-19 12:32N 32°49' E 035°02'0 0.0
2016-Jun-19 11:32N 32°49' E 035°02'0 0.0
2016-Jun-19 10:31N 32°49' E 035°02'0 0.0
2016-Jun-19 09:31N 32°49' E 035°02'0 0.0
2016-Jun-19 08:28N 32°49' E 035°02'0 0.0
2016-Jun-19 07:31N 32°49' E 035°02'0 0.0
2016-Jun-19 06:31N 32°49' E 035°02'0 0.0
2016-Jun-19 05:31N 32°49' E 035°02'0 0.0
2016-Jun-19 04:31N 32°49' E 035°02'0 0.0
2016-Jun-19 03:31N 32°49' E 035°02'0 0.0
2016-Jun-19 02:28N 32°49' E 035°02'0 0.1
2016-Jun-19 01:34N 32°49' E 035°02'5 4.4
2016-Jun-19 00:31N 32°53' E 034°59'0 0.0
2016-Jun-18 23:31N 32°53' E 034°59'0 0.0
2016-Jun-18 22:31N 32°53' E 034°59'0 0.0
2016-Jun-18 21:31N 32°53' E 034°59'0 0.0
2016-Jun-18 20:31N 32°53' E 034°59'0 0.0
2016-Jun-18 19:31N 32°53' E 034°59'0 0.0
2016-Jun-18 18:31N 32°53' E 034°59'0 0.0
2016-Jun-18 17:31N 32°53' E 034°59'0 0.0
2016-Jun-18 16:31N 32°53' E 034°59'0 0.0
2016-Jun-18 15:31N 32°53' E 034°59'0 0.0
2016-Jun-18 14:31N 32°53' E 034°59'0 0.0
2016-Jun-18 13:31N 32°53' E 034°59'0 0.0
2016-Jun-18 12:31N 32°53' E 034°59'0 0.0
2016-Jun-18 11:28N 32°53' E 034°59'0 0.0
2016-Jun-18 10:31N 32°53' E 034°59'0 0.0
2016-Jun-18 09:31N 32°53' E 034°59'0 0.0
2016-Jun-18 08:31N 32°53' E 034°59'0 0.0
2016-Jun-18 07:31N 32°53' E 034°59'0 0.0
2016-Jun-18 06:33N 32°53' E 034°59'0 0.0
2016-Jun-18 05:33N 32°53' E 034°59'0 0.0
2016-Jun-18 04:27N 32°53' E 034°59'0 0.0
2016-Jun-18 03:33N 32°53' E 034°59'0 0.0
2016-Jun-18 02:33N 32°53' E 034°59'0 0.0
2016-Jun-18 01:33N 32°53' E 034°59'0 0.0
2016-Jun-18 00:33N 32°53' E 034°59'0 0.0
2016-Jun-17 23:33N 32°53' E 034°59'0 0.0
2016-Jun-17 22:33N 32°53' E 034°59'0 0.0
2016-Jun-17 21:33N 32°53' E 034°59'0 0.0
2016-Jun-17 20:33N 32°53' E 034°59'0 0.0
2016-Jun-17 19:33N 32°53' E 034°59'0 0.0
2016-Jun-17 18:33N 32°53' E 034°59'0 0.0
2016-Jun-17 17:33N 32°53' E 034°59'0 0.0
2016-Jun-17 16:33N 32°53' E 034°59'0 0.0
2016-Jun-17 15:33N 32°53' E 034°59'0 0.0
2016-Jun-17 14:33N 32°53' E 034°59'0 0.0
2016-Jun-17 13:33N 32°53' E 034°59'0 0.0
2016-Jun-17 12:33N 32°53' E 034°59'0 0.0
2016-Jun-17 11:33N 32°53' E 034°59'0 0.0
2016-Jun-17 10:33N 32°53' E 034°59'0 0.0
2016-Jun-17 09:33N 32°53' E 034°59'  

Dump ship's entire track history